createdAt,value
2022-07-28T00:01:39.131Z,27.70
2022-07-28T00:04:07.334Z,27.70
2022-07-28T00:06:36.866Z,27.70
2022-07-28T00:09:05.278Z,27.70
2022-07-28T00:11:33.425Z,27.70
2022-07-28T00:14:01.739Z,27.70
2022-07-28T00:16:29.939Z,27.70
2022-07-28T00:18:58.178Z,27.70
2022-07-28T00:21:26.335Z,27.70
2022-07-28T00:23:55.838Z,27.70
2022-07-28T00:26:24.045Z,27.70
2022-07-28T00:28:52.130Z,27.70
2022-07-28T00:31:20.347Z,27.70
2022-07-28T00:33:48.496Z,27.70
2022-07-28T00:36:16.640Z,27.70
2022-07-28T00:38:45.959Z,27.70
2022-07-28T00:41:20.479Z,27.70
2022-07-28T00:43:50.951Z,27.70
2022-07-28T00:46:20.818Z,27.70
2022-07-28T00:48:50.704Z,27.70
2022-07-28T00:51:19.823Z,27.70
2022-07-28T00:53:48.637Z,27.70
2022-07-28T00:56:19.791Z,27.70
2022-07-28T00:58:49.176Z,27.70
2022-07-28T01:01:20.008Z,27.70
2022-07-28T01:03:51.489Z,27.70
2022-07-28T01:06:53.270Z,27.70
2022-07-28T01:09:38.622Z,27.70
2022-07-28T01:12:17.130Z,27.70
2022-07-28T01:14:50.343Z,27.70
2022-07-28T01:17:30.554Z,27.70
2022-07-28T01:20:06.342Z,27.70
2022-07-28T01:22:38.605Z,27.70
2022-07-28T01:25:19.090Z,27.70
2022-07-28T01:27:58.407Z,27.70
2022-07-28T01:30:37.710Z,27.70
2022-07-28T01:33:13.427Z,27.70
2022-07-28T01:35:47.469Z,27.70
2022-07-28T01:38:17.844Z,27.70
2022-07-28T01:40:48.439Z,27.70
2022-07-28T01:43:22.412Z,27.70
2022-07-28T01:45:52.427Z,27.70
2022-07-28T01:48:22.273Z,27.70
2022-07-28T01:50:51.964Z,27.70
2022-07-28T01:53:21.523Z,27.60
2022-07-28T01:55:52.225Z,27.70
2022-07-28T01:58:23.485Z,27.70
2022-07-28T02:00:54.373Z,27.70
2022-07-28T02:03:24.591Z,27.60
2022-07-28T02:05:55.027Z,27.70
2022-07-28T02:08:24.482Z,27.70
2022-07-28T02:11:09.844Z,27.60
2022-07-28T02:13:39.219Z,27.60
2022-07-28T02:16:12.276Z,27.60
2022-07-28T02:18:41.649Z,27.70
2022-07-28T02:21:11.682Z,27.70
2022-07-28T02:23:42.287Z,27.70
2022-07-28T02:26:10.781Z,27.60
2022-07-28T02:28:40.085Z,27.60
2022-07-28T02:31:14.218Z,27.70
2022-07-28T02:33:59.387Z,27.70
2022-07-28T02:36:31.466Z,27.60
2022-07-28T02:39:05.053Z,27.60
2022-07-28T02:41:38.156Z,27.60
2022-07-28T02:44:14.185Z,27.60
2022-07-28T02:46:48.292Z,27.60
2022-07-28T02:49:20.554Z,27.60
2022-07-28T02:51:50.676Z,27.60
2022-07-28T02:54:20.721Z,27.60
2022-07-28T02:56:53.336Z,27.60
2022-07-28T02:59:22.936Z,27.70
2022-07-28T03:01:53.110Z,27.60
2022-07-28T03:04:42.177Z,27.70
2022-07-28T03:07:11.110Z,27.60
2022-07-28T03:09:43.253Z,27.60
2022-07-28T03:12:11.548Z,27.60
2022-07-28T03:14:40.225Z,27.60
2022-07-28T03:17:10.078Z,27.60
2022-07-28T03:19:38.588Z,27.70
2022-07-28T03:22:10.405Z,27.60
2022-07-28T03:24:41.204Z,27.60
2022-07-28T03:27:13.130Z,27.60
2022-07-28T03:29:43.920Z,27.60
2022-07-28T03:32:14.561Z,27.60
2022-07-28T03:34:42.491Z,27.60
2022-07-28T03:37:14.452Z,27.60
2022-07-28T03:39:48.214Z,27.60
2022-07-28T03:42:18.483Z,27.60
2022-07-28T03:44:48.494Z,27.60
2022-07-28T03:47:22.590Z,27.60
2022-07-28T03:49:50.922Z,27.60
2022-07-28T03:52:19.767Z,27.60
2022-07-28T03:54:47.880Z,27.60
2022-07-28T03:57:16.070Z,27.60
2022-07-28T03:59:44.255Z,27.60
2022-07-28T04:02:12.476Z,27.60
2022-07-28T04:04:42.081Z,27.60
2022-07-28T04:07:10.211Z,27.60
2022-07-28T04:09:38.350Z,27.60
2022-07-28T04:12:06.912Z,27.60
2022-07-28T04:14:35.136Z,27.60
2022-07-28T04:17:03.306Z,27.60
2022-07-28T04:19:31.477Z,27.60
2022-07-28T04:22:00.987Z,27.60
2022-07-28T04:24:29.234Z,27.60
2022-07-28T04:26:57.391Z,27.50
2022-07-28T04:29:27.469Z,27.60
2022-07-28T04:31:55.794Z,27.60
2022-07-28T04:34:24.784Z,27.50
2022-07-28T04:36:53.201Z,27.50
2022-07-28T04:39:24.716Z,27.50
2022-07-28T04:41:52.976Z,27.50
2022-07-28T04:44:21.178Z,27.50
2022-07-28T04:46:49.285Z,27.50
2022-07-28T04:49:17.419Z,27.50
2022-07-28T04:51:49.392Z,27.50
2022-07-28T04:54:19.962Z,27.50
2022-07-28T04:56:51.510Z,27.50
2022-07-28T04:59:19.981Z,27.50
2022-07-28T05:01:49.674Z,27.50
2022-07-28T05:04:18.627Z,27.50
2022-07-28T05:06:47.173Z,27.50
2022-07-28T05:09:15.273Z,27.50
2022-07-28T05:11:43.880Z,27.50
2022-07-28T05:14:13.724Z,27.50
2022-07-28T05:16:42.204Z,27.50
2022-07-28T05:19:10.592Z,27.50
2022-07-28T05:21:38.798Z,27.50
2022-07-28T05:24:08.120Z,27.50
2022-07-28T05:26:36.255Z,27.50
2022-07-28T05:29:04.586Z,27.40
2022-07-28T05:31:34.301Z,27.40
2022-07-28T05:34:02.588Z,27.40
2022-07-28T05:36:30.702Z,27.40
2022-07-28T05:38:58.879Z,27.40
2022-07-28T05:41:26.953Z,27.30
2022-07-28T05:43:55.144Z,27.40
2022-07-28T05:46:23.836Z,27.40
2022-07-28T05:48:53.490Z,27.40
2022-07-28T05:51:21.713Z,27.30
2022-07-28T05:53:49.828Z,27.30
2022-07-28T05:56:18.115Z,27.30
2022-07-28T05:58:46.280Z,27.30
2022-07-28T06:01:14.454Z,27.30
2022-07-28T06:03:42.788Z,27.40
2022-07-28T06:06:15.978Z,27.40
2022-07-28T06:08:46.550Z,27.40
2022-07-28T06:11:21.911Z,27.40
2022-07-28T06:13:51.928Z,27.40
2022-07-28T06:16:21.107Z,27.40
2022-07-28T06:18:49.453Z,27.40
2022-07-28T06:21:19.017Z,27.40
2022-07-28T06:23:47.209Z,27.40
2022-07-28T06:26:30.580Z,27.40
2022-07-28T06:28:58.762Z,27.40
2022-07-28T06:31:27.005Z,27.40
2022-07-28T06:33:55.191Z,27.50
2022-07-28T06:36:24.682Z,27.50
2022-07-28T06:38:52.931Z,27.50
2022-07-28T06:41:21.086Z,27.50
2022-07-28T06:43:49.234Z,27.50
2022-07-28T06:46:19.459Z,27.50
2022-07-28T06:48:47.836Z,27.50
2022-07-28T06:51:19.150Z,27.50
2022-07-28T06:53:49.041Z,27.60
2022-07-28T06:56:19.686Z,27.60
2022-07-28T06:58:49.657Z,27.60
2022-07-28T07:01:17.877Z,27.60
2022-07-28T07:03:46.111Z,27.60
2022-07-28T07:06:14.422Z,27.60
2022-07-28T07:08:42.625Z,27.60
2022-07-28T07:11:13.101Z,27.60
2022-07-28T07:13:41.269Z,27.60
2022-07-28T07:16:09.538Z,27.60
2022-07-28T07:18:38.150Z,27.60
2022-07-28T07:21:06.537Z,27.60
2022-07-28T07:23:35.473Z,27.70
2022-07-28T07:26:04.461Z,27.70
2022-07-28T07:28:34.928Z,27.60
2022-07-28T07:31:03.207Z,27.70
2022-07-28T07:33:31.453Z,27.70
2022-07-28T07:35:59.596Z,27.70
2022-07-28T07:38:29.399Z,27.70
2022-07-28T07:40:57.825Z,27.70
2022-07-28T07:43:26.059Z,27.80
2022-07-28T07:45:56.122Z,27.80
2022-07-28T07:48:24.311Z,27.80
2022-07-28T07:50:54.311Z,27.80
2022-07-28T07:53:22.928Z,27.80
2022-07-28T07:55:51.413Z,27.80
2022-07-28T07:58:19.626Z,27.80
2022-07-28T08:00:47.786Z,27.90
2022-07-28T08:03:22.509Z,27.90
2022-07-28T08:05:51.694Z,27.90
2022-07-28T08:08:19.836Z,27.90
2022-07-28T08:10:51.025Z,27.90
2022-07-28T08:13:20.420Z,28.00
2022-07-28T08:15:48.666Z,28.00
2022-07-28T08:18:18.265Z,28.00
2022-07-28T08:20:46.433Z,28.00
2022-07-28T08:23:14.582Z,28.00
2022-07-28T08:25:44.358Z,28.00
2022-07-28T08:28:12.509Z,28.00
2022-07-28T08:30:40.739Z,28.00
2022-07-28T08:33:08.926Z,28.00
2022-07-28T08:35:38.760Z,28.00
2022-07-28T08:38:07.334Z,28.00
2022-07-28T08:40:37.491Z,28.00
2022-07-28T08:43:14.992Z,28.10
2022-07-28T08:45:44.553Z,28.10
2022-07-28T08:48:13.584Z,28.10
2022-07-28T08:50:45.235Z,28.10
2022-07-28T08:53:15.624Z,28.10
2022-07-28T08:55:44.582Z,28.10
2022-07-28T08:58:14.088Z,28.10
2022-07-28T09:00:43.171Z,28.10
2022-07-28T09:03:13.490Z,28.10
2022-07-28T09:05:44.832Z,28.10
2022-07-28T09:08:13.471Z,28.10
2022-07-28T09:10:41.655Z,28.10
2022-07-28T09:13:10.135Z,28.10
2022-07-28T09:15:42.326Z,28.10
2022-07-28T09:18:10.490Z,28.20
2022-07-28T09:20:40.007Z,28.20
2022-07-28T09:23:42.423Z,28.20
2022-07-28T09:26:11.056Z,28.20
2022-07-28T09:28:47.529Z,28.20
2022-07-28T09:31:16.636Z,28.20
2022-07-28T09:34:00.424Z,28.20
2022-07-28T09:36:29.266Z,28.20
2022-07-28T09:38:59.227Z,28.20
2022-07-28T09:41:27.473Z,28.20
2022-07-28T09:43:56.040Z,28.20
2022-07-28T09:46:26.119Z,28.20
2022-07-28T09:48:58.592Z,28.20
2022-07-28T09:51:28.723Z,28.20
2022-07-28T09:54:09.457Z,28.20
2022-07-28T09:56:38.115Z,28.20
2022-07-28T09:59:06.865Z,28.20
2022-07-28T10:01:52.066Z,28.20
2022-07-28T10:04:31.399Z,28.30
2022-07-28T10:07:05.479Z,28.30
2022-07-28T10:09:35.221Z,28.30
2022-07-28T10:12:17.102Z,28.30
2022-07-28T10:14:47.362Z,28.30
2022-07-28T10:17:30.266Z,28.30
2022-07-28T10:19:59.885Z,28.30
2022-07-28T10:22:33.087Z,28.30
2022-07-28T10:25:09.866Z,28.30
2022-07-28T10:27:38.590Z,28.30
2022-07-28T10:30:07.979Z,28.30
2022-07-28T10:32:41.588Z,28.30
2022-07-28T10:35:12.461Z,28.30
2022-07-28T10:37:46.579Z,28.30
2022-07-28T10:40:19.522Z,28.30
2022-07-28T10:42:47.863Z,28.30
2022-07-28T10:45:18.228Z,28.30
2022-07-28T10:47:47.276Z,28.40
2022-07-28T10:50:16.058Z,28.30
2022-07-28T10:52:50.112Z,28.30
2022-07-28T10:55:31.911Z,28.30
2022-07-28T10:58:12.260Z,28.30
2022-07-28T11:00:59.921Z,28.40
2022-07-28T11:03:42.918Z,28.40
2022-07-28T11:06:26.633Z,28.40
2022-07-28T11:08:55.077Z,28.40
2022-07-28T11:11:49.905Z,28.40
2022-07-28T11:14:33.916Z,28.40
2022-07-28T11:17:23.817Z,28.40
2022-07-28T11:22:46.015Z,28.40
2022-07-28T11:25:18.994Z,28.40
2022-07-28T11:28:04.634Z,28.40
2022-07-28T11:30:53.571Z,28.40
2022-07-28T11:33:22.597Z,28.30
2022-07-28T11:35:56.763Z,28.40
2022-07-28T11:38:26.199Z,28.30
2022-07-28T11:40:56.197Z,28.30
2022-07-28T11:43:43.593Z,28.30
2022-07-28T11:46:40.353Z,28.30
2022-07-28T11:49:27.571Z,28.30
2022-07-28T11:52:22.954Z,28.30
2022-07-28T11:54:54.093Z,28.30
2022-07-28T11:57:25.934Z,28.30
2022-07-28T12:00:00.690Z,28.30
2022-07-28T12:02:31.741Z,28.30
2022-07-28T12:05:12.755Z,28.30
2022-07-28T12:07:46.447Z,28.30
2022-07-28T12:10:54.344Z,28.30
2022-07-28T12:13:25.753Z,28.30
2022-07-28T12:15:55.499Z,28.30
2022-07-28T12:18:24.879Z,28.30
2022-07-28T12:20:54.704Z,28.30
2022-07-28T12:23:38.929Z,28.20
2022-07-28T12:26:13.579Z,28.30
2022-07-28T12:28:51.746Z,28.20
2022-07-28T12:31:25.955Z,28.30
2022-07-28T12:33:54.480Z,28.30
2022-07-28T12:36:24.266Z,28.20
2022-07-28T12:38:53.541Z,28.30
2022-07-28T12:41:21.875Z,28.30
2022-07-28T12:43:54.732Z,28.30
2022-07-28T12:46:28.511Z,28.30
2022-07-28T12:48:58.134Z,28.30
2022-07-28T12:51:33.809Z,28.30
2022-07-28T12:54:03.861Z,28.30
2022-07-28T12:56:32.191Z,28.30
2022-07-28T12:59:08.032Z,28.30
2022-07-28T13:01:48.971Z,28.30
2022-07-28T13:04:17.994Z,28.30
2022-07-28T13:06:57.436Z,28.30
2022-07-28T13:09:32.653Z,28.30
2022-07-28T13:12:01.487Z,28.30
2022-07-28T13:14:42.528Z,28.20
2022-07-28T13:17:12.543Z,28.30
2022-07-28T13:19:40.673Z,28.30
2022-07-28T13:22:09.553Z,28.30
2022-07-28T13:24:37.834Z,28.30
2022-07-28T13:27:06.981Z,28.30
2022-07-28T13:29:36.123Z,28.30
2022-07-28T13:32:04.463Z,28.30
2022-07-28T13:34:34.504Z,28.30
2022-07-28T13:37:02.654Z,28.30
2022-07-28T13:39:30.786Z,28.30
2022-07-28T13:41:59.479Z,28.30
2022-07-28T13:44:28.496Z,28.30
2022-07-28T13:46:59.061Z,28.30
2022-07-28T13:49:28.408Z,28.30
2022-07-28T13:51:58.564Z,28.30
2022-07-28T13:54:28.737Z,28.30
2022-07-28T13:56:56.945Z,28.30
2022-07-28T13:59:26.418Z,28.30
2022-07-28T14:01:56.125Z,28.30
2022-07-28T14:04:25.119Z,28.30
2022-07-28T14:06:54.918Z,28.30
2022-07-28T14:09:24.547Z,28.30
2022-07-28T14:11:53.248Z,28.30
2022-07-28T14:14:24.083Z,28.30
2022-07-28T14:16:54.486Z,28.30
2022-07-28T14:19:38.629Z,28.30
2022-07-28T14:22:13.085Z,28.30
2022-07-28T14:24:43.570Z,28.30
2022-07-28T14:27:12.273Z,28.30
2022-07-28T14:29:40.574Z,28.30
2022-07-28T14:32:08.754Z,28.30
2022-07-28T14:34:37.147Z,28.30
2022-07-28T14:37:08.904Z,28.30
2022-07-28T14:39:38.237Z,28.40
2022-07-28T14:42:08.280Z,28.30
2022-07-28T14:44:36.475Z,28.30
2022-07-28T14:47:05.021Z,28.40
2022-07-28T14:49:33.192Z,28.30
2022-07-28T14:52:01.354Z,28.40
2022-07-28T14:54:29.575Z,28.40
2022-07-28T14:56:57.807Z,28.30
2022-07-28T14:59:27.314Z,28.40
2022-07-28T15:01:55.628Z,28.30
2022-07-28T15:04:25.427Z,28.30
2022-07-28T15:06:53.974Z,28.30
2022-07-28T15:09:22.345Z,28.40
2022-07-28T15:11:50.473Z,28.40
2022-07-28T15:14:20.458Z,28.40
2022-07-28T15:16:51.166Z,28.40
2022-07-28T15:19:19.340Z,28.40
2022-07-28T15:21:47.997Z,28.40
2022-07-28T15:24:17.712Z,28.40
2022-07-28T15:26:46.237Z,28.40
2022-07-28T15:29:14.476Z,28.40
2022-07-28T15:31:43.426Z,28.40
2022-07-28T15:34:15.648Z,28.40
2022-07-28T15:36:44.396Z,28.40
2022-07-28T15:39:14.911Z,28.30
2022-07-28T15:41:43.209Z,28.30
2022-07-28T15:44:13.146Z,28.30
2022-07-28T15:46:41.879Z,28.30
2022-07-28T15:49:11.553Z,28.30
2022-07-28T15:51:41.349Z,28.30
2022-07-28T15:54:10.036Z,28.20
2022-07-28T15:56:38.292Z,28.20
2022-07-28T15:59:07.768Z,28.20
2022-07-28T16:01:36.133Z,28.20
2022-07-28T16:04:04.568Z,28.20
2022-07-28T16:06:46.612Z,28.20
2022-07-28T16:09:16.385Z,28.10
2022-07-28T16:11:44.533Z,28.10
2022-07-28T16:14:13.090Z,28.10
2022-07-28T16:16:41.382Z,28.10
2022-07-28T16:19:31.570Z,28.10
2022-07-28T16:21:59.148Z,28.10
2022-07-28T16:24:28.686Z,28.10
2022-07-28T16:26:56.869Z,28.00
2022-07-28T16:29:25.574Z,28.10
2022-07-28T16:31:53.775Z,28.00
2022-07-28T16:34:22.022Z,28.00
2022-07-28T16:36:50.251Z,28.00
2022-07-28T16:39:18.397Z,28.00
2022-07-28T16:41:48.918Z,28.00
2022-07-28T16:44:19.174Z,28.10
2022-07-28T16:46:47.720Z,28.00
2022-07-28T16:49:16.911Z,28.00
2022-07-28T16:51:45.079Z,28.10
2022-07-28T16:54:14.270Z,28.00
2022-07-28T16:56:42.989Z,28.00
2022-07-28T16:59:12.534Z,28.00
2022-07-28T17:01:45.531Z,28.00
2022-07-28T17:04:14.685Z,28.00
2022-07-28T17:06:43.543Z,28.00
2022-07-28T17:09:11.786Z,28.00
2022-07-28T17:11:41.103Z,28.00
2022-07-28T17:14:09.308Z,27.90
2022-07-28T17:16:38.915Z,28.00
2022-07-28T17:19:07.132Z,28.00
2022-07-28T17:21:36.090Z,27.90
2022-07-28T17:24:04.808Z,28.00
2022-07-28T17:29:23.145Z,27.90
2022-07-28T17:31:52.769Z,27.90
2022-07-28T17:34:20.908Z,27.90
2022-07-28T17:36:50.389Z,27.90
2022-07-28T17:39:18.652Z,27.90
2022-07-28T17:41:46.798Z,27.90
2022-07-28T17:44:15.239Z,27.90
2022-07-28T17:46:45.444Z,27.90
2022-07-28T17:49:15.147Z,27.90
2022-07-28T17:51:43.634Z,27.90
2022-07-28T17:54:14.119Z,27.90
2022-07-28T17:56:43.091Z,27.90
2022-07-28T17:59:12.837Z,27.90
2022-07-28T18:01:45.332Z,27.90
2022-07-28T18:04:15.315Z,27.90
2022-07-28T18:06:44.667Z,27.90
2022-07-28T18:09:12.813Z,27.90
2022-07-28T18:11:55.615Z,27.90
2022-07-28T18:14:26.409Z,27.80
2022-07-28T18:16:54.714Z,27.90
2022-07-28T18:19:24.260Z,27.80
2022-07-28T18:21:52.462Z,27.90
2022-07-28T18:24:22.276Z,27.80
2022-07-28T18:26:51.296Z,27.90
2022-07-28T18:29:20.926Z,27.80
2022-07-28T18:31:49.797Z,27.80
2022-07-28T18:34:18.265Z,27.80
2022-07-28T18:36:48.105Z,27.80
2022-07-28T18:39:18.976Z,27.80
2022-07-28T18:41:47.979Z,27.80
2022-07-28T18:44:17.734Z,27.80
2022-07-28T18:46:47.032Z,27.80
2022-07-28T18:49:15.772Z,27.80
2022-07-28T18:51:45.444Z,27.80
2022-07-28T18:54:20.030Z,27.80
2022-07-28T18:56:50.121Z,27.80
2022-07-28T18:59:18.736Z,27.80
2022-07-28T19:01:47.308Z,27.80
2022-07-28T19:04:15.947Z,27.80
2022-07-28T19:06:44.396Z,27.80
2022-07-28T19:09:14.011Z,27.80
2022-07-28T19:11:46.034Z,27.80
2022-07-28T19:14:15.363Z,27.80
2022-07-28T19:16:44.213Z,27.80
2022-07-28T19:19:12.986Z,27.80
2022-07-28T19:21:43.403Z,27.80
2022-07-28T19:24:12.451Z,27.80
2022-07-28T19:26:43.292Z,27.80
2022-07-28T19:29:11.341Z,27.80
2022-07-28T19:31:40.071Z,27.80
2022-07-28T19:34:09.365Z,27.80
2022-07-28T19:36:38.046Z,27.80
2022-07-28T19:39:06.272Z,27.80
2022-07-28T19:41:34.574Z,27.80
2022-07-28T19:44:04.490Z,27.80
2022-07-28T19:46:32.646Z,27.80
2022-07-28T19:49:00.853Z,27.80
2022-07-28T19:51:29.080Z,27.80
2022-07-28T19:53:58.636Z,27.80
2022-07-28T19:56:31.232Z,27.80
2022-07-28T19:59:00.116Z,27.80
2022-07-28T20:01:29.779Z,27.80
2022-07-28T20:04:01.979Z,27.80
2022-07-28T20:06:32.887Z,27.80
2022-07-28T20:09:01.640Z,27.70
2022-07-28T20:11:29.844Z,27.70
2022-07-28T20:13:58.191Z,27.70
2022-07-28T20:16:26.628Z,27.70
2022-07-28T20:18:56.928Z,27.80
2022-07-28T20:21:26.461Z,27.70
2022-07-28T20:23:56.294Z,27.70
2022-07-28T20:26:25.949Z,27.80
2022-07-28T20:28:54.997Z,27.80
2022-07-28T20:31:23.279Z,27.80
2022-07-28T20:33:52.764Z,27.80
2022-07-28T20:36:26.241Z,27.70
2022-07-28T20:38:57.428Z,27.70
2022-07-28T20:41:25.609Z,27.70
2022-07-28T20:44:18.459Z,27.70
2022-07-28T20:46:41.923Z,27.70
2022-07-28T20:49:10.255Z,27.70
2022-07-28T20:51:39.768Z,27.70
2022-07-28T20:54:18.993Z,27.70
2022-07-28T20:56:47.173Z,27.70
2022-07-28T20:59:15.428Z,27.70
2022-07-28T21:01:43.994Z,27.70
2022-07-28T21:04:12.493Z,27.70
2022-07-28T21:06:51.255Z,27.70
2022-07-28T21:09:21.070Z,27.70
2022-07-28T21:11:49.451Z,27.70
2022-07-28T21:14:17.990Z,27.70
2022-07-28T21:16:46.736Z,27.70
2022-07-28T21:19:15.005Z,27.70
2022-07-28T21:21:44.673Z,27.70
2022-07-28T21:24:13.159Z,27.70
2022-07-28T21:26:42.752Z,27.70
2022-07-28T21:32:01.978Z,27.70
2022-07-28T21:34:30.379Z,27.70
2022-07-28T21:37:00.186Z,27.70
2022-07-28T21:39:28.640Z,27.70
2022-07-28T21:41:56.770Z,27.70
2022-07-28T21:44:25.260Z,27.70
2022-07-28T21:46:53.411Z,27.70
2022-07-28T21:49:21.685Z,27.70
2022-07-28T21:51:49.999Z,27.70
2022-07-28T21:54:20.266Z,27.70
2022-07-28T21:56:48.529Z,27.70
2022-07-28T21:59:16.708Z,27.70
2022-07-28T22:01:44.926Z,27.70
2022-07-28T22:04:13.492Z,27.70
2022-07-28T22:06:46.098Z,27.70
2022-07-28T22:09:14.743Z,27.70
2022-07-28T22:11:44.638Z,27.70
2022-07-28T22:14:13.558Z,27.70
2022-07-28T22:16:42.149Z,27.70
2022-07-28T22:19:11.904Z,27.70
2022-07-28T22:21:40.146Z,27.70
2022-07-28T22:24:08.894Z,27.70
2022-07-28T22:26:37.018Z,27.70
2022-07-28T22:29:06.566Z,27.70
2022-07-28T22:31:34.823Z,27.70
2022-07-28T22:34:03.034Z,27.70
2022-07-28T22:36:31.199Z,27.70
2022-07-28T22:38:59.272Z,27.70
2022-07-28T22:41:27.381Z,27.70
2022-07-28T22:43:55.676Z,27.70
2022-07-28T22:46:25.252Z,27.70
2022-07-28T22:48:53.633Z,27.70
2022-07-28T22:51:21.823Z,27.70
2022-07-28T22:53:50.292Z,27.60
2022-07-28T22:59:04.306Z,27.60
2022-07-28T23:01:34.206Z,27.60
2022-07-28T23:04:02.948Z,27.60
2022-07-28T23:06:31.414Z,27.60
2022-07-28T23:08:59.710Z,27.60
2022-07-28T23:11:27.996Z,27.60
2022-07-28T23:13:56.365Z,27.60
2022-07-28T23:16:24.639Z,27.60
2022-07-28T23:18:54.274Z,27.60
2022-07-28T23:21:22.863Z,27.60
2022-07-28T23:23:51.271Z,27.60
2022-07-28T23:26:19.719Z,27.60
2022-07-28T23:28:48.241Z,27.60
2022-07-28T23:31:16.587Z,27.60
2022-07-28T23:33:54.368Z,27.60
2022-07-28T23:36:27.455Z,27.60
2022-07-28T23:38:57.075Z,27.60
2022-07-28T23:41:25.917Z,27.60
2022-07-28T23:43:54.880Z,27.60
2022-07-28T23:46:23.627Z,27.60
2022-07-28T23:48:52.079Z,27.60
2022-07-28T23:51:21.330Z,27.60
2022-07-28T23:53:56.226Z,27.60
2022-07-28T23:56:24.850Z,27.60
2022-07-28T23:58:53.122Z,27.60
